sensor_id;sensor_type;location;lat;lon;timestamp;P1;durP1;ratioP1;P2;durP2;ratioP2
26620;SDS011;14253;44.840;10.444;2023-09-19T00:01:41;20.23;;;5.35;;
26620;SDS011;14253;44.840;10.444;2023-09-19T00:04:11;16.70;;;5.82;;
26620;SDS011;14253;44.840;10.444;2023-09-19T00:06:38;11.82;;;4.85;;
26620;SDS011;14253;44.840;10.444;2023-09-19T00:09:04;18.27;;;6.43;;
26620;SDS011;14253;44.840;10.444;2023-09-19T00:11:30;15.48;;;5.53;;
26620;SDS011;14253;44.840;10.444;2023-09-19T00:13:57;10.60;;;5.35;;
26620;SDS011;14253;44.840;10.444;2023-09-19T00:16:26;17.27;;;5.40;;
26620;SDS011;14253;44.840;10.444;2023-09-19T00:18:52;15.57;;;5.53;;
26620;SDS011;14253;44.840;10.444;2023-09-19T00:21:18;13.25;;;5.57;;
26620;SDS011;14253;44.840;10.444;2023-09-19T00:23:44;13.70;;;5.40;;
26620;SDS011;14253;44.840;10.444;2023-09-19T00:26:10;17.40;;;6.20;;
26620;SDS011;14253;44.840;10.444;2023-09-19T00:28:38;15.45;;;5.55;;
26620;SDS011;14253;44.840;10.444;2023-09-19T00:31:04;17.27;;;5.45;;
26620;SDS011;14253;44.840;10.444;2023-09-19T00:33:34;11.98;;;5.32;;
26620;SDS011;14253;44.840;10.444;2023-09-19T00:35:59;18.88;;;6.40;;
26620;SDS011;14253;44.840;10.444;2023-09-19T00:38:30;20.85;;;5.85;;
26620;SDS011;14253;44.840;10.444;2023-09-19T00:40:57;16.27;;;6.05;;
26620;SDS011;14253;44.840;10.444;2023-09-19T00:43:25;21.17;;;7.00;;
26620;SDS011;14253;44.840;10.444;2023-09-19T00:45:53;14.63;;;5.90;;
26620;SDS011;14253;44.840;10.444;2023-09-19T00:48:21;13.60;;;5.75;;
26620;SDS011;14253;44.840;10.444;2023-09-19T00:50:48;13.27;;;5.80;;
26620;SDS011;14253;44.840;10.444;2023-09-19T00:53:19;15.95;;;6.47;;
26620;SDS011;14253;44.840;10.444;2023-09-19T00:55:48;15.15;;;6.40;;
26620;SDS011;14253;44.840;10.444;2023-09-19T00:58:15;11.82;;;6.00;;
26620;SDS011;14253;44.840;10.444;2023-09-19T01:00:44;20.38;;;6.40;;
26620;SDS011;14253;44.840;10.444;2023-09-19T01:03:10;22.17;;;7.03;;
26620;SDS011;14253;44.840;10.444;2023-09-19T01:05:39;23.48;;;6.97;;
26620;SDS011;14253;44.840;10.444;2023-09-19T01:08:06;17.50;;;6.70;;
26620;SDS011;14253;44.840;10.444;2023-09-19T01:10:32;13.93;;;6.32;;
26620;SDS011;14253;44.840;10.444;2023-09-19T01:13:08;20.80;;;7.95;;
26620;SDS011;14253;44.840;10.444;2023-09-19T01:15:49;20.30;;;7.15;;
26620;SDS011;14253;44.840;10.444;2023-09-19T01:29:13;18.02;;;7.30;;
26620;SDS011;14253;44.840;10.444;2023-09-19T01:31:45;20.35;;;6.85;;
26620;SDS011;14253;44.840;10.444;2023-09-19T01:34:14;23.13;;;7.30;;
26620;SDS011;14253;44.840;10.444;2023-09-19T01:36:40;20.40;;;8.00;;
26620;SDS011;14253;44.840;10.444;2023-09-19T01:39:12;18.80;;;7.00;;
26620;SDS011;14253;44.840;10.444;2023-09-19T01:44:17;18.90;;;8.43;;
26620;SDS011;14253;44.840;10.444;2023-09-19T01:47:13;20.45;;;8.05;;
26620;SDS011;14253;44.840;10.444;2023-09-19T01:49:55;18.75;;;7.10;;
26620;SDS011;14253;44.840;10.444;2023-09-19T01:52:30;22.63;;;7.28;;
26620;SDS011;14253;44.840;10.444;2023-09-19T01:55:02;15.90;;;7.82;;
26620;SDS011;14253;44.840;10.444;2023-09-19T01:57:35;19.63;;;8.73;;
26620;SDS011;14253;44.840;10.444;2023-09-19T02:00:10;20.98;;;8.32;;
26620;SDS011;14253;44.840;10.444;2023-09-19T02:07:39;21.30;;;8.95;;
26620;SDS011;14253;44.840;10.444;2023-09-19T02:10:06;16.85;;;8.13;;
26620;SDS011;14253;44.840;10.444;2023-09-19T02:12:32;16.67;;;7.97;;
26620;SDS011;14253;44.840;10.444;2023-09-19T02:15:02;17.20;;;7.95;;
26620;SDS011;14253;44.840;10.444;2023-09-19T02:17:28;17.27;;;8.10;;
26620;SDS011;14253;44.840;10.444;2023-09-19T02:19:56;18.88;;;8.35;;
26620;SDS011;14253;44.840;10.444;2023-09-19T02:22:24;19.63;;;7.47;;
26620;SDS011;14253;44.840;10.444;2023-09-19T02:24:50;25.30;;;9.52;;
26620;SDS011;14253;44.840;10.444;2023-09-19T02:27:18;22.63;;;7.50;;
26620;SDS011;14253;44.840;10.444;2023-09-19T02:29:44;18.77;;;8.27;;
26620;SDS011;14253;44.840;10.444;2023-09-19T02:32:10;19.98;;;8.32;;
26620;SDS011;14253;44.840;10.444;2023-09-19T02:34:36;18.73;;;7.55;;
26620;SDS011;14253;44.840;10.444;2023-09-19T02:37:04;23.13;;;7.13;;
26620;SDS011;14253;44.840;10.444;2023-09-19T02:39:31;18.92;;;8.07;;
26620;SDS011;14253;44.840;10.444;2023-09-19T02:41:57;23.63;;;7.78;;
26620;SDS011;14253;44.840;10.444;2023-09-19T02:44:23;22.52;;;8.13;;
26620;SDS011;14253;44.840;10.444;2023-09-19T02:46:50;21.05;;;7.88;;
26620;SDS011;14253;44.840;10.444;2023-09-19T02:49:16;17.30;;;8.27;;
26620;SDS011;14253;44.840;10.444;2023-09-19T02:51:43;18.42;;;7.18;;
26620;SDS011;14253;44.840;10.444;2023-09-19T02:54:11;19.13;;;8.27;;
26620;SDS011;14253;44.840;10.444;2023-09-19T02:56:37;15.60;;;7.20;;
26620;SDS011;14253;44.840;10.444;2023-09-19T02:59:03;18.77;;;7.07;;
26620;SDS011;14253;44.840;10.444;2023-09-19T03:01:29;19.58;;;7.57;;
26620;SDS011;14253;44.840;10.444;2023-09-19T03:03:56;18.80;;;7.60;;
26620;SDS011;14253;44.840;10.444;2023-09-19T03:06:22;21.98;;;8.80;;
26620;SDS011;14253;44.840;10.444;2023-09-19T03:08:49;18.40;;;7.80;;
26620;SDS011;14253;44.840;10.444;2023-09-19T03:11:18;17.38;;;7.90;;
26620;SDS011;14253;44.840;10.444;2023-09-19T03:13:51;19.85;;;8.13;;
26620;SDS011;14253;44.840;10.444;2023-09-19T03:16:17;23.40;;;9.55;;
26620;SDS011;14253;44.840;10.444;2023-09-19T03:18:48;21.67;;;8.35;;
26620;SDS011;14253;44.840;10.444;2023-09-19T03:21:15;16.15;;;7.60;;
26620;SDS011;14253;44.840;10.444;2023-09-19T03:23:43;20.98;;;7.93;;
26620;SDS011;14253;44.840;10.444;2023-09-19T03:26:12;18.67;;;8.38;;
26620;SDS011;14253;44.840;10.444;2023-09-19T03:28:41;16.67;;;7.55;;
26620;SDS011;14253;44.840;10.444;2023-09-19T03:31:08;16.52;;;7.75;;
26620;SDS011;14253;44.840;10.444;2023-09-19T03:33:35;16.92;;;8.52;;
26620;SDS011;14253;44.840;10.444;2023-09-19T03:36:03;24.88;;;8.30;;
26620;SDS011;14253;44.840;10.444;2023-09-19T03:38:30;13.43;;;7.43;;
26620;SDS011;14253;44.840;10.444;2023-09-19T03:40:57;19.98;;;7.63;;
26620;SDS011;14253;44.840;10.444;2023-09-19T03:43:24;25.27;;;8.10;;
26620;SDS011;14253;44.840;10.444;2023-09-19T03:45:51;19.60;;;8.75;;
26620;SDS011;14253;44.840;10.444;2023-09-19T03:48:19;18.33;;;7.65;;
26620;SDS011;14253;44.840;10.444;2023-09-19T03:50:47;15.73;;;7.30;;
26620;SDS011;14253;44.840;10.444;2023-09-19T03:53:14;23.13;;;9.77;;
26620;SDS011;14253;44.840;10.444;2023-09-19T03:55:40;18.35;;;8.50;;
26620;SDS011;14253;44.840;10.444;2023-09-19T03:58:06;25.55;;;9.63;;
26620;SDS011;14253;44.840;10.444;2023-09-19T04:00:32;24.85;;;8.23;;
26620;SDS011;14253;44.840;10.444;2023-09-19T04:03:00;22.80;;;9.02;;
26620;SDS011;14253;44.840;10.444;2023-09-19T04:05:31;18.88;;;7.90;;
26620;SDS011;14253;44.840;10.444;2023-09-19T04:07:57;22.58;;;8.75;;
26620;SDS011;14253;44.840;10.444;2023-09-19T04:10:23;20.80;;;8.02;;
26620;SDS011;14253;44.840;10.444;2023-09-19T04:12:53;21.63;;;8.32;;
26620;SDS011;14253;44.840;10.444;2023-09-19T04:15:21;21.20;;;8.23;;
26620;SDS011;14253;44.840;10.444;2023-09-19T04:17:51;24.58;;;8.68;;
26620;SDS011;14253;44.840;10.444;2023-09-19T04:20:22;21.95;;;7.93;;
26620;SDS011;14253;44.840;10.444;2023-09-19T04:22:49;17.65;;;8.30;;
26620;SDS011;14253;44.840;10.444;2023-09-19T04:25:22;20.02;;;8.13;;
26620;SDS011;14253;44.840;10.444;2023-09-19T04:27:50;19.67;;;7.95;;
26620;SDS011;14253;44.840;10.444;2023-09-19T04:30:16;17.58;;;7.90;;
26620;SDS011;14253;44.840;10.444;2023-09-19T04:32:42;23.73;;;9.77;;
26620;SDS011;14253;44.840;10.444;2023-09-19T04:35:09;17.40;;;9.10;;
26620;SDS011;14253;44.840;10.444;2023-09-19T04:37:38;22.13;;;9.20;;
26620;SDS011;14253;44.840;10.444;2023-09-19T04:40:08;25.60;;;9.25;;
26620;SDS011;14253;44.840;10.444;2023-09-19T04:42:42;23.75;;;10.95;;
26620;SDS011;14253;44.840;10.444;2023-09-19T04:45:09;24.95;;;11.23;;
26620;SDS011;14253;44.840;10.444;2023-09-19T04:47:36;25.95;;;11.38;;
26620;SDS011;14253;44.840;10.444;2023-09-19T04:50:07;29.38;;;12.50;;
26620;SDS011;14253;44.840;10.444;2023-09-19T04:52:38;26.05;;;12.18;;
26620;SDS011;14253;44.840;10.444;2023-09-19T04:55:13;28.10;;;14.23;;
26620;SDS011;14253;44.840;10.444;2023-09-19T04:57:45;28.52;;;14.63;;
26620;SDS011;14253;44.840;10.444;2023-09-19T05:00:13;26.80;;;14.93;;
26620;SDS011;14253;44.840;10.444;2023-09-19T05:02:41;28.23;;;15.98;;
26620;SDS011;14253;44.840;10.444;2023-09-19T05:05:07;29.00;;;17.30;;
26620;SDS011;14253;44.840;10.444;2023-09-19T05:07:36;35.45;;;16.23;;
26620;SDS011;14253;44.840;10.444;2023-09-19T05:10:03;37.35;;;17.17;;
26620;SDS011;14253;44.840;10.444;2023-09-19T05:12:36;34.33;;;19.17;;
26620;SDS011;14253;44.840;10.444;2023-09-19T05:15:05;32.30;;;18.33;;
26620;SDS011;14253;44.840;10.444;2023-09-19T05:17:32;34.15;;;18.85;;
26620;SDS011;14253;44.840;10.444;2023-09-19T05:19:59;32.58;;;17.95;;
26620;SDS011;14253;44.840;10.444;2023-09-19T05:22:30;37.15;;;19.25;;
26620;SDS011;14253;44.840;10.444;2023-09-19T05:24:58;32.65;;;20.30;;
26620;SDS011;14253;44.840;10.444;2023-09-19T05:27:24;37.58;;;19.63;;
26620;SDS011;14253;44.840;10.444;2023-09-19T05:29:50;29.92;;;19.92;;
26620;SDS011;14253;44.840;10.444;2023-09-19T05:32:18;33.47;;;20.23;;
26620;SDS011;14253;44.840;10.444;2023-09-19T05:34:45;43.53;;;22.55;;
26620;SDS011;14253;44.840;10.444;2023-09-19T05:37:12;41.88;;;22.55;;
26620;SDS011;14253;44.840;10.444;2023-09-19T05:39:39;35.95;;;22.67;;
26620;SDS011;14253;44.840;10.444;2023-09-19T05:42:05;38.05;;;22.90;;
26620;SDS011;14253;44.840;10.444;2023-09-19T05:44:33;37.97;;;22.95;;
26620;SDS011;14253;44.840;10.444;2023-09-19T05:46:59;48.80;;;25.52;;
26620;SDS011;14253;44.840;10.444;2023-09-19T05:49:25;39.25;;;23.35;;
26620;SDS011;14253;44.840;10.444;2023-09-19T05:51:51;42.28;;;22.63;;
26620;SDS011;14253;44.840;10.444;2023-09-19T05:54:22;41.63;;;24.33;;
26620;SDS011;14253;44.840;10.444;2023-09-19T05:56:48;42.42;;;23.35;;
26620;SDS011;14253;44.840;10.444;2023-09-19T05:59:17;42.20;;;25.05;;
26620;SDS011;14253;44.840;10.444;2023-09-19T06:01:44;40.95;;;25.17;;
26620;SDS011;14253;44.840;10.444;2023-09-19T06:04:10;41.47;;;25.42;;
26620;SDS011;14253;44.840;10.444;2023-09-19T06:06:35;39.75;;;25.23;;
26620;SDS011;14253;44.840;10.444;2023-09-19T06:09:05;39.00;;;23.90;;
26620;SDS011;14253;44.840;10.444;2023-09-19T06:11:34;45.70;;;26.77;;
26620;SDS011;14253;44.840;10.444;2023-09-19T06:14:01;40.80;;;26.60;;
26620;SDS011;14253;44.840;10.444;2023-09-19T06:16:28;46.65;;;27.60;;
26620;SDS011;14253;44.840;10.444;2023-09-19T06:18:54;42.10;;;26.35;;
26620;SDS011;14253;44.840;10.444;2023-09-19T06:21:24;48.15;;;27.70;;
26620;SDS011;14253;44.840;10.444;2023-09-19T06:23:50;45.08;;;28.50;;
26620;SDS011;14253;44.840;10.444;2023-09-19T06:26:16;42.58;;;28.65;;
26620;SDS011;14253;44.840;10.444;2023-09-19T06:28:42;39.67;;;28.60;;
26620;SDS011;14253;44.840;10.444;2023-09-19T06:31:09;43.00;;;29.48;;
26620;SDS011;14253;44.840;10.444;2023-09-19T06:33:36;46.95;;;31.95;;
26620;SDS011;14253;44.840;10.444;2023-09-19T06:36:05;47.97;;;31.77;;
26620;SDS011;14253;44.840;10.444;2023-09-19T06:38:32;49.97;;;33.65;;
26620;SDS011;14253;44.840;10.444;2023-09-19T06:41:01;46.08;;;31.20;;
26620;SDS011;14253;44.840;10.444;2023-09-19T06:43:31;52.70;;;31.08;;
26620;SDS011;14253;44.840;10.444;2023-09-19T06:45:57;49.00;;;32.33;;
26620;SDS011;14253;44.840;10.444;2023-09-19T06:48:24;42.92;;;30.13;;
26620;SDS011;14253;44.840;10.444;2023-09-19T06:51:00;51.58;;;32.13;;
26620;SDS011;14253;44.840;10.444;2023-09-19T06:53:33;44.67;;;31.40;;
26620;SDS011;14253;44.840;10.444;2023-09-19T06:56:00;48.13;;;31.33;;
26620;SDS011;14253;44.840;10.444;2023-09-19T06:58:26;46.08;;;31.65;;
26620;SDS011;14253;44.840;10.444;2023-09-19T07:00:53;46.88;;;32.45;;
26620;SDS011;14253;44.840;10.444;2023-09-19T07:03:19;52.35;;;34.53;;
26620;SDS011;14253;44.840;10.444;2023-09-19T07:05:47;43.83;;;32.15;;
26620;SDS011;14253;44.840;10.444;2023-09-19T07:08:14;49.17;;;31.58;;
26620;SDS011;14253;44.840;10.444;2023-09-19T07:10:41;45.22;;;32.80;;
26620;SDS011;14253;44.840;10.444;2023-09-19T07:13:14;50.80;;;31.02;;
26620;SDS011;14253;44.840;10.444;2023-09-19T07:15:42;49.42;;;30.88;;
26620;SDS011;14253;44.840;10.444;2023-09-19T07:18:15;40.85;;;29.17;;
26620;SDS011;14253;44.840;10.444;2023-09-19T07:20:42;45.75;;;30.92;;
26620;SDS011;14253;44.840;10.444;2023-09-19T07:23:16;44.50;;;30.35;;
26620;SDS011;14253;44.840;10.444;2023-09-19T07:25:43;47.58;;;32.35;;
26620;SDS011;14253;44.840;10.444;2023-09-19T07:28:10;47.17;;;32.05;;
26620;SDS011;14253;44.840;10.444;2023-09-19T07:30:36;40.30;;;29.45;;
26620;SDS011;14253;44.840;10.444;2023-09-19T07:33:03;44.90;;;30.20;;
26620;SDS011;14253;44.840;10.444;2023-09-19T07:35:30;43.88;;;31.20;;
26620;SDS011;14253;44.840;10.444;2023-09-19T07:37:57;41.17;;;30.15;;
26620;SDS011;14253;44.840;10.444;2023-09-19T07:40:27;45.65;;;31.63;;
26620;SDS011;14253;44.840;10.444;2023-09-19T07:42:54;44.40;;;30.58;;
26620;SDS011;14253;44.840;10.444;2023-09-19T07:45:21;41.80;;;31.70;;
26620;SDS011;14253;44.840;10.444;2023-09-19T07:47:48;45.55;;;33.00;;
26620;SDS011;14253;44.840;10.444;2023-09-19T07:50:16;50.42;;;35.63;;
26620;SDS011;14253;44.840;10.444;2023-09-19T07:52:44;49.72;;;35.05;;
26620;SDS011;14253;44.840;10.444;2023-09-19T07:55:10;47.17;;;32.97;;
26620;SDS011;14253;44.840;10.444;2023-09-19T07:57:41;44.75;;;32.50;;
26620;SDS011;14253;44.840;10.444;2023-09-19T08:00:09;50.38;;;33.00;;
26620;SDS011;14253;44.840;10.444;2023-09-19T08:02:40;49.47;;;32.55;;
26620;SDS011;14253;44.840;10.444;2023-09-19T08:05:08;48.78;;;32.63;;
26620;SDS011;14253;44.840;10.444;2023-09-19T08:07:37;55.53;;;34.72;;
26620;SDS011;14253;44.840;10.444;2023-09-19T08:10:04;49.10;;;33.05;;
26620;SDS011;14253;44.840;10.444;2023-09-19T08:12:37;49.67;;;34.95;;
26620;SDS011;14253;44.840;10.444;2023-09-19T08:15:11;46.40;;;31.80;;
26620;SDS011;14253;44.840;10.444;2023-09-19T08:17:45;50.28;;;31.88;;
26620;SDS011;14253;44.840;10.444;2023-09-19T08:20:11;47.80;;;30.88;;
26620;SDS011;14253;44.840;10.444;2023-09-19T08:22:47;45.40;;;27.15;;
26620;SDS011;14253;44.840;10.444;2023-09-19T08:25:15;42.83;;;26.67;;
26620;SDS011;14253;44.840;10.444;2023-09-19T08:27:47;41.25;;;28.80;;
26620;SDS011;14253;44.840;10.444;2023-09-19T08:30:20;39.97;;;26.98;;
26620;SDS011;14253;44.840;10.444;2023-09-19T08:33:01;42.60;;;28.63;;
26620;SDS011;14253;44.840;10.444;2023-09-19T08:35:28;41.53;;;25.90;;
26620;SDS011;14253;44.840;10.444;2023-09-19T08:37:54;42.38;;;26.92;;
26620;SDS011;14253;44.840;10.444;2023-09-19T08:40:23;40.90;;;25.67;;
26620;SDS011;14253;44.840;10.444;2023-09-19T08:42:56;42.33;;;26.52;;
26620;SDS011;14253;44.840;10.444;2023-09-19T08:45:25;43.10;;;26.67;;
26620;SDS011;14253;44.840;10.444;2023-09-19T08:51:26;37.25;;;25.35;;
26620;SDS011;14253;44.840;10.444;2023-09-19T08:56:32;50.17;;;28.15;;
26620;SDS011;14253;44.840;10.444;2023-09-19T08:59:07;49.85;;;28.92;;
26620;SDS011;14253;44.840;10.444;2023-09-19T09:01:33;53.72;;;31.50;;
26620;SDS011;14253;44.840;10.444;2023-09-19T09:04:01;48.75;;;32.67;;
26620;SDS011;14253;44.840;10.444;2023-09-19T09:06:27;46.65;;;31.83;;
26620;SDS011;14253;44.840;10.444;2023-09-19T09:08:55;49.13;;;31.00;;
26620;SDS011;14253;44.840;10.444;2023-09-19T09:11:21;53.40;;;30.88;;
26620;SDS011;14253;44.840;10.444;2023-09-19T09:13:51;51.67;;;31.58;;
26620;SDS011;14253;44.840;10.444;2023-09-19T09:16:16;46.60;;;31.65;;
26620;SDS011;14253;44.840;10.444;2023-09-19T09:18:44;49.70;;;31.65;;
26620;SDS011;14253;44.840;10.444;2023-09-19T09:21:11;44.38;;;28.55;;
26620;SDS011;14253;44.840;10.444;2023-09-19T09:23:38;42.78;;;26.77;;
26620;SDS011;14253;44.840;10.444;2023-09-19T09:26:04;46.65;;;30.05;;
26620;SDS011;14253;44.840;10.444;2023-09-19T09:28:33;44.35;;;28.85;;
26620;SDS011;14253;44.840;10.444;2023-09-19T09:31:00;42.92;;;27.83;;
26620;SDS011;14253;44.840;10.444;2023-09-19T09:33:34;36.70;;;25.27;;
26620;SDS011;14253;44.840;10.444;2023-09-19T09:36:01;33.83;;;22.35;;
26620;SDS011;14253;44.840;10.444;2023-09-19T09:38:29;30.95;;;19.15;;
26620;SDS011;14253;44.840;10.444;2023-09-19T09:41:08;31.10;;;21.30;;
26620;SDS011;14253;44.840;10.444;2023-09-19T09:43:39;34.25;;;20.73;;
26620;SDS011;14253;44.840;10.444;2023-09-19T09:46:07;33.45;;;21.10;;
26620;SDS011;14253;44.840;10.444;2023-09-19T09:51:59;32.00;;;19.08;;
26620;SDS011;14253;44.840;10.444;2023-09-19T09:57:10;31.95;;;17.50;;
26620;SDS011;14253;44.840;10.444;2023-09-19T10:02:28;33.40;;;16.45;;
26620;SDS011;14253;44.840;10.444;2023-09-19T10:05:22;28.10;;;17.13;;
26620;SDS011;14253;44.840;10.444;2023-09-19T10:08:11;35.03;;;18.42;;
26620;SDS011;14253;44.840;10.444;2023-09-19T10:10:39;31.73;;;15.07;;
26620;SDS011;14253;44.840;10.444;2023-09-19T10:13:09;22.38;;;13.10;;
26620;SDS011;14253;44.840;10.444;2023-09-19T10:15:43;20.83;;;11.93;;
26620;SDS011;14253;44.840;10.444;2023-09-19T10:18:16;24.10;;;11.65;;
26620;SDS011;14253;44.840;10.444;2023-09-19T10:20:47;19.35;;;10.18;;
26620;SDS011;14253;44.840;10.444;2023-09-19T10:23:17;18.50;;;9.50;;
26620;SDS011;14253;44.840;10.444;2023-09-19T10:25:51;23.80;;;12.65;;
26620;SDS011;14253;44.840;10.444;2023-09-19T10:28:19;25.38;;;15.75;;
26620;SDS011;14253;44.840;10.444;2023-09-19T10:30:49;34.22;;;19.67;;
26620;SDS011;14253;44.840;10.444;2023-09-19T10:33:17;31.35;;;17.92;;
26620;SDS011;14253;44.840;10.444;2023-09-19T10:35:49;34.08;;;16.45;;
26620;SDS011;14253;44.840;10.444;2023-09-19T10:38:25;29.90;;;16.38;;
26620;SDS011;14253;44.840;10.444;2023-09-19T10:40:54;34.50;;;18.88;;
26620;SDS011;14253;44.840;10.444;2023-09-19T10:43:31;31.73;;;17.75;;
26620;SDS011;14253;44.840;10.444;2023-09-19T10:46:02;32.00;;;19.63;;
26620;SDS011;14253;44.840;10.444;2023-09-19T10:48:32;31.67;;;16.83;;
26620;SDS011;14253;44.840;10.444;2023-09-19T10:51:01;24.85;;;15.07;;
26620;SDS011;14253;44.840;10.444;2023-09-19T10:53:52;31.15;;;17.48;;
26620;SDS011;14253;44.840;10.444;2023-09-19T10:59:05;28.05;;;16.90;;
26620;SDS011;14253;44.840;10.444;2023-09-19T11:07:01;28.63;;;14.70;;
26620;SDS011;14253;44.840;10.444;2023-09-19T11:09:47;29.70;;;14.65;;
26620;SDS011;14253;44.840;10.444;2023-09-19T11:14:56;22.52;;;14.30;;
26620;SDS011;14253;44.840;10.444;2023-09-19T11:17:29;23.85;;;13.15;;
26620;SDS011;14253;44.840;10.444;2023-09-19T11:30:36;23.17;;;13.75;;
26620;SDS011;14253;44.840;10.444;2023-09-19T11:33:22;22.73;;;15.55;;
26620;SDS011;14253;44.840;10.444;2023-09-19T11:43:47;24.30;;;13.20;;
26620;SDS011;14253;44.840;10.444;2023-09-19T11:46:16;24.23;;;14.55;;
26620;SDS011;14253;44.840;10.444;2023-09-19T11:48:49;22.85;;;14.52;;
26620;SDS011;14253;44.840;10.444;2023-09-19T11:51:17;25.00;;;14.68;;
26620;SDS011;14253;44.840;10.444;2023-09-19T11:53:45;27.67;;;15.23;;
26620;SDS011;14253;44.840;10.444;2023-09-19T11:56:15;29.63;;;15.10;;
26620;SDS011;14253;44.840;10.444;2023-09-19T11:58:43;24.33;;;14.68;;
26620;SDS011;14253;44.840;10.444;2023-09-19T12:01:13;26.42;;;13.15;;
26620;SDS011;14253;44.840;10.444;2023-09-19T12:03:46;29.10;;;15.52;;
26620;SDS011;14253;44.840;10.444;2023-09-19T12:06:18;20.85;;;12.38;;
26620;SDS011;14253;44.840;10.444;2023-09-19T12:08:44;27.42;;;13.38;;
26620;SDS011;14253;44.840;10.444;2023-09-19T12:11:13;20.55;;;12.07;;
26620;SDS011;14253;44.840;10.444;2023-09-19T12:13:47;22.55;;;12.02;;
26620;SDS011;14253;44.840;10.444;2023-09-19T12:16:20;25.85;;;11.68;;
26620;SDS011;14253;44.840;10.444;2023-09-19T12:18:49;24.95;;;12.68;;
26620;SDS011;14253;44.840;10.444;2023-09-19T12:24:04;22.35;;;11.02;;
26620;SDS011;14253;44.840;10.444;2023-09-19T12:26:45;18.55;;;11.27;;
26620;SDS011;14253;44.840;10.444;2023-09-19T12:31:48;20.67;;;11.40;;
26620;SDS011;14253;44.840;10.444;2023-09-19T12:34:26;21.77;;;12.27;;
26620;SDS011;14253;44.840;10.444;2023-09-19T12:37:06;23.42;;;11.55;;
26620;SDS011;14253;44.840;10.444;2023-09-19T12:39:49;19.00;;;9.50;;
26620;SDS011;14253;44.840;10.444;2023-09-19T12:42:22;22.13;;;10.57;;
26620;SDS011;14253;44.840;10.444;2023-09-19T12:47:23;15.80;;;9.07;;
26620;SDS011;14253;44.840;10.444;2023-09-19T12:52:55;26.73;;;10.23;;
26620;SDS011;14253;44.840;10.444;2023-09-19T12:55:28;19.05;;;10.38;;
26620;SDS011;14253;44.840;10.444;2023-09-19T12:58:13;20.85;;;9.52;;
26620;SDS011;14253;44.840;10.444;2023-09-19T13:00:41;17.75;;;9.45;;
26620;SDS011;14253;44.840;10.444;2023-09-19T13:03:17;19.92;;;10.85;;
26620;SDS011;14253;44.840;10.444;2023-09-19T13:05:48;19.90;;;10.40;;
26620;SDS011;14253;44.840;10.444;2023-09-19T13:08:26;22.70;;;9.85;;
26620;SDS011;14253;44.840;10.444;2023-09-19T13:11:04;21.55;;;9.60;;
26620;SDS011;14253;44.840;10.444;2023-09-19T13:13:32;18.58;;;9.10;;
26620;SDS011;14253;44.840;10.444;2023-09-19T13:16:01;23.25;;;9.80;;
26620;SDS011;14253;44.840;10.444;2023-09-19T13:18:27;15.55;;;8.38;;
26620;SDS011;14253;44.840;10.444;2023-09-19T13:21:07;24.92;;;9.63;;
26620;SDS011;14253;44.840;10.444;2023-09-19T13:23:49;19.40;;;8.48;;
26620;SDS011;14253;44.840;10.444;2023-09-19T13:26:16;16.30;;;8.98;;
26620;SDS011;14253;44.840;10.444;2023-09-19T13:28:42;18.05;;;9.10;;
26620;SDS011;14253;44.840;10.444;2023-09-19T13:31:09;15.57;;;8.68;;
26620;SDS011;14253;44.840;10.444;2023-09-19T13:33:42;18.80;;;9.02;;
26620;SDS011;14253;44.840;10.444;2023-09-19T13:36:10;19.40;;;10.43;;
26620;SDS011;14253;44.840;10.444;2023-09-19T13:38:39;12.77;;;7.13;;
26620;SDS011;14253;44.840;10.444;2023-09-19T13:41:09;17.25;;;8.30;;
26620;SDS011;14253;44.840;10.444;2023-09-19T13:43:36;16.17;;;7.90;;
26620;SDS011;14253;44.840;10.444;2023-09-19T13:46:04;14.10;;;7.53;;
26620;SDS011;14253;44.840;10.444;2023-09-19T13:48:33;19.08;;;8.45;;
26620;SDS011;14253;44.840;10.444;2023-09-19T13:51:01;28.75;;;9.82;;
26620;SDS011;14253;44.840;10.444;2023-09-19T13:53:29;15.13;;;8.23;;
26620;SDS011;14253;44.840;10.444;2023-09-19T13:55:55;15.00;;;7.65;;
26620;SDS011;14253;44.840;10.444;2023-09-19T13:58:21;17.65;;;8.15;;
26620;SDS011;14253;44.840;10.444;2023-09-19T14:00:48;20.27;;;7.82;;
26620;SDS011;14253;44.840;10.444;2023-09-19T14:03:14;18.23;;;8.20;;
26620;SDS011;14253;44.840;10.444;2023-09-19T14:05:40;20.02;;;8.63;;
26620;SDS011;14253;44.840;10.444;2023-09-19T14:08:07;13.82;;;8.00;;
26620;SDS011;14253;44.840;10.444;2023-09-19T14:10:33;16.70;;;7.35;;
26620;SDS011;14253;44.840;10.444;2023-09-19T14:13:00;21.17;;;8.57;;
26620;SDS011;14253;44.840;10.444;2023-09-19T14:15:27;19.58;;;8.18;;
26620;SDS011;14253;44.840;10.444;2023-09-19T14:17:56;15.50;;;7.35;;
26620;SDS011;14253;44.840;10.444;2023-09-19T14:20:24;14.07;;;7.07;;
26620;SDS011;14253;44.840;10.444;2023-09-19T14:22:53;10.95;;;6.25;;
26620;SDS011;14253;44.840;10.444;2023-09-19T14:25:20;16.48;;;7.25;;
26620;SDS011;14253;44.840;10.444;2023-09-19T14:27:46;12.40;;;6.47;;
26620;SDS011;14253;44.840;10.444;2023-09-19T14:30:13;18.40;;;6.90;;
26620;SDS011;14253;44.840;10.444;2023-09-19T14:32:39;13.80;;;6.80;;
26620;SDS011;14253;44.840;10.444;2023-09-19T14:35:06;12.25;;;6.13;;
26620;SDS011;14253;44.840;10.444;2023-09-19T14:37:34;12.65;;;6.78;;
26620;SDS011;14253;44.840;10.444;2023-09-19T14:40:00;13.15;;;5.75;;
26620;SDS011;14253;44.840;10.444;2023-09-19T14:42:32;17.13;;;8.35;;
26620;SDS011;14253;44.840;10.444;2023-09-19T14:45:01;14.57;;;7.47;;
26620;SDS011;14253;44.840;10.444;2023-09-19T14:47:28;14.95;;;7.45;;
26620;SDS011;14253;44.840;10.444;2023-09-19T14:49:57;14.25;;;6.40;;
26620;SDS011;14253;44.840;10.444;2023-09-19T14:52:23;13.10;;;6.60;;
26620;SDS011;14253;44.840;10.444;2023-09-19T14:54:52;15.50;;;7.53;;
26620;SDS011;14253;44.840;10.444;2023-09-19T14:57:18;14.43;;;6.40;;
26620;SDS011;14253;44.840;10.444;2023-09-19T14:59:44;16.50;;;6.25;;
26620;SDS011;14253;44.840;10.444;2023-09-19T15:02:10;17.77;;;6.65;;
26620;SDS011;14253;44.840;10.444;2023-09-19T15:04:36;16.10;;;6.85;;
26620;SDS011;14253;44.840;10.444;2023-09-19T15:07:03;11.43;;;5.90;;
26620;SDS011;14253;44.840;10.444;2023-09-19T15:09:29;13.05;;;6.55;;
26620;SDS011;14253;44.840;10.444;2023-09-19T15:11:57;12.90;;;6.95;;
26620;SDS011;14253;44.840;10.444;2023-09-19T15:14:23;16.77;;;6.75;;
26620;SDS011;14253;44.840;10.444;2023-09-19T15:16:50;14.70;;;7.80;;
26620;SDS011;14253;44.840;10.444;2023-09-19T15:19:16;11.32;;;5.70;;
26620;SDS011;14253;44.840;10.444;2023-09-19T15:21:43;11.35;;;6.43;;
26620;SDS011;14253;44.840;10.444;2023-09-19T15:24:09;14.93;;;5.95;;
26620;SDS011;14253;44.840;10.444;2023-09-19T15:26:36;11.98;;;5.75;;
26620;SDS011;14253;44.840;10.444;2023-09-19T15:29:09;13.95;;;5.63;;
26620;SDS011;14253;44.840;10.444;2023-09-19T15:31:35;15.38;;;6.97;;
26620;SDS011;14253;44.840;10.444;2023-09-19T15:34:02;17.27;;;7.25;;
26620;SDS011;14253;44.840;10.444;2023-09-19T15:36:29;11.88;;;6.03;;
26620;SDS011;14253;44.840;10.444;2023-09-19T15:39:02;9.85;;;6.15;;
26620;SDS011;14253;44.840;10.444;2023-09-19T15:43:58;15.65;;;6.43;;